Time;durP1;ratioP1;P1;durP2;ratioP2;P2;SDS_P1;SDS_P2;PMS_P1;PMS_P2;Temp;Humidity;BMP_temperature;BMP_pressure;BME280_temperature;BME280_humidity;BME280_pressure;Samples;Min_cycle;Max_cycle;Signal;HPM_P1;HPM_P2
2022/01/04 00:00:17;;;;;;;4.60;2.00;;;;;;;9.06;90.45;99515.78;6209758;23;20055;-74
2022/01/04 00:03:21;;;;;;;6.20;1.80;;;;;;;8.98;90.89;99505.00;6208723;23;20031;-74
2022/01/04 00:06:24;;;;;;;;;;;;;;;9.03;90.48;99500.34;6209155;23;20079;-74
2022/01/04 00:09:27;;;;;;;6.60;2.05;;;;;;;9.02;90.34;99477.78;6208953;23;19918;-75
2022/01/04 00:15:54;;;;;;;3.20;0.95;;;;;;;8.88;90.46;99475.22;6207988;23;20476;-73
2022/01/04 00:18:57;;;;;;;5.10;0.80;;;;;;;8.87;90.38;99455.31;6208230;23;20022;-74
2022/01/04 00:22:03;;;;;;;2.83;1.30;;;;;;;8.81;90.88;99446.09;6208642;23;20028;-74
2022/01/04 00:25:06;;;;;;;6.80;1.40;;;;;;;8.92;90.64;99427.16;6208628;23;20027;-74
2022/01/04 00:28:11;;;;;;;4.22;1.20;;;;;;;8.96;90.21;99422.59;6208418;23;20024;-74
2022/01/04 00:31:14;;;;;;;3.13;1.48;;;;;;;8.92;90.26;99408.06;6209095;23;20063;-74
2022/01/04 00:34:17;;;;;;;;;;;;;;;8.90;90.11;99400.34;6209541;23;20613;-74
2022/01/04 00:37:20;;;;;;;3.72;1.15;;;;;;;8.89;90.05;99403.88;6208445;23;19966;-74
2022/01/04 00:40:24;;;;;;;;;;;;;;;8.88;90.26;99402.22;6208970;23;20024;-74
2022/01/04 00:43:28;;;;;;;3.65;1.17;;;;;;;8.90;89.91;99399.50;6207883;23;19934;-74
2022/01/04 00:46:31;;;;;;;2.40;1.20;;;;;;;8.92;89.95;99390.66;6208752;23;20390;-74
2022/01/04 00:49:35;;;;;;;;;;;;;;;8.94;90.00;99393.19;6210150;23;20063;-74
2022/01/04 00:52:38;;;;;;;7.50;2.05;;;;;;;8.67;91.05;99391.38;6190485;23;19919;-74
2022/01/04 00:55:42;;;;;;;5.22;1.33;;;;;;;8.51;91.78;99368.03;6208166;23;20084;-73
2022/01/04 00:58:45;;;;;;;;;;;;;;;8.50;92.09;99361.16;6208321;23;20070;-74
2022/01/04 01:01:48;;;;;;;3.67;1.57;;;;;;;8.56;92.16;99365.16;6207937;23;20349;-74
2022/01/04 01:04:52;;;;;;;5.80;2.22;;;;;;;8.71;91.43;99359.00;6191327;23;20082;-74
2022/01/04 01:07:56;;;;;;;2.90;1.40;;;;;;;8.77;90.90;99362.94;6190495;23;20051;-73
2022/01/04 01:10:59;;;;;;;3.08;1.20;;;;;;;8.78;90.71;99338.59;6207863;23;20082;-73
2022/01/04 01:14:02;;;;;;;;;;;;;;;8.73;90.61;99351.88;6207962;23;20082;-73
2022/01/04 01:17:05;;;;;;;3.45;1.17;;;;;;;8.71;91.13;99330.31;6208244;23;19999;-74
2022/01/04 01:20:11;;;;;;;2.67;0.98;;;;;;;8.79;90.80;99335.03;6208346;23;20024;-75
2022/01/04 01:23:14;;;;;;;5.40;1.23;;;;;;;8.78;90.52;99322.94;6208841;23;20022;-73
2022/01/04 01:26:18;;;;;;;4.78;1.30;;;;;;;8.77;90.62;99326.47;6208118;23;20548;-74
2022/01/04 01:29:21;;;;;;;5.28;1.30;;;;;;;8.78;90.25;99309.91;6208391;23;20031;-74
2022/01/04 01:32:25;;;;;;;3.13;0.82;;;;;;;8.76;90.26;99314.38;6205847;23;20031;-74
2022/01/04 01:35:28;;;;;;;;;;;;;;;8.78;90.12;99297.72;6207658;23;20023;-73
2022/01/04 01:38:31;;;;;;;6.28;1.05;;;;;;;8.78;90.11;99302.09;6189283;23;20381;-74
2022/01/04 01:41:35;;;;;;;3.47;0.80;;;;;;;8.74;90.07;99285.81;6207842;23;20046;-74
2022/01/04 01:44:38;;;;;;;4.88;0.70;;;;;;;8.73;90.13;99278.91;6208817;23;20028;-74
2022/01/04 01:47:43;;;;;;;4.47;0.70;;;;;;;8.77;90.02;99274.34;6207477;23;20055;-73
2022/01/04 01:50:47;;;;;;;4.45;1.40;;;;;;;8.70;90.51;99262.66;6207324;23;20390;-74
2022/01/04 01:53:50;;;;;;;6.40;1.88;;;;;;;8.67;90.54;99260.25;6207484;23;20039;-73
2022/01/04 01:56:53;;;;;;;;;;;;;;;8.70;90.40;99254.81;6207699;23;20051;-74
2022/01/04 01:59:58;;;;;;;2.78;1.60;;;;;;;8.78;89.89;99249.97;6208427;23;19991;-73
2022/01/04 02:03:02;;;;;;;5.43;1.17;;;;;;;8.70;90.07;99229.59;6208374;23;20028;-73
2022/01/04 02:06:06;;;;;;;3.45;1.38;;;;;;;8.70;89.75;99242.63;6207633;23;20027;-73
2022/01/04 02:09:09;;;;;;;3.83;1.77;;;;;;;8.69;89.97;99232.31;6206846;23;20486;-73
2022/01/04 02:12:15;;;;;;;5.03;1.80;;;;;;;8.66;89.81;99227.31;6206283;23;20063;-73
2022/01/04 02:15:21;;;;;;;3.55;1.25;;;;;;;8.71;89.84;99217.41;6207014;23;20078;-73
2022/01/04 02:18:24;;;;;;;2.47;1.35;;;;;;;8.76;89.48;99215.34;6207746;23;20023;-73
2022/01/04 02:21:27;;;;;;;;;;;;;;;8.76;89.79;99221.38;6209064;23;20039;-73
2022/01/04 02:24:32;;;;;;;3.80;1.90;;;;;;;8.79;89.81;99204.72;6188849;23;20302;-73
2022/01/04 02:27:38;;;;;;;7.63;1.85;;;;;;;8.70;90.25;99200.09;6206951;23;20090;-73
2022/01/04 02:30:41;;;;;;;4.10;1.77;;;;;;;8.67;90.29;99197.69;6207171;23;20366;-73
2022/01/04 02:33:44;;;;;;;;;;;;;;;8.60;90.67;99190.28;6207869;23;20027;-73
2022/01/04 02:36:47;;;;;;;4.10;2.17;;;;;;;8.54;90.53;99190.69;6206564;23;19919;-74
2022/01/04 02:39:52;;;;;;;6.30;2.28;;;;;;;8.59;90.32;99173.00;6207384;23;20024;-73
2022/01/04 02:42:55;;;;;;;7.25;2.38;;;;;;;8.66;90.06;99183.00;6207899;23;20075;-73
2022/01/04 02:45:59;;;;;;;3.42;1.52;;;;;;;8.70;89.68;99179.25;6207891;23;20168;-73
2022/01/04 02:49:02;;;;;;;;;;;;;;;8.69;89.78;99182.81;6208035;23;20082;-73
2022/01/04 02:52:05;;;;;;;3.67;1.60;;;;;;;8.68;89.57;99176.78;6187833;23;19915;-74
2022/01/04 02:55:11;;;;;;;3.80;1.50;;;;;;;8.59;90.03;99167.78;6207197;23;20334;-73
2022/01/04 02:58:14;;;;;;;2.53;1.10;;;;;;;8.50;90.52;99157.94;6207285;23;20589;-74
2022/01/04 03:01:17;;;;;;;;;;;;;;;8.60;90.29;99155.56;6208708;23;20038;-73
2022/01/04 03:04:21;;;;;;;2.92;1.27;;;;;;;8.66;89.95;99154.34;6207664;23;19922;-73
2022/01/04 03:07:24;;;;;;;2.33;1.20;;;;;;;8.65;89.70;99129.22;6206458;23;20127;-73
2022/01/04 03:10:27;;;;;;;;;;;;;;;8.64;89.79;99135.38;6207379;23;20051;-73
2022/01/04 03:13:30;;;;;;;4.53;1.40;;;;;;;8.63;90.06;99131.94;6207264;23;19915;-74
2022/01/04 03:16:35;;;;;;;;;;;;;;;8.59;90.28;99133.91;6208328;23;20111;-73
2022/01/04 03:19:38;;;;;;;2.80;1.73;;;;;;;8.57;90.09;99116.69;6208461;23;19954;-74
2022/01/04 03:22:41;;;;;;;2.55;1.30;;;;;;;8.54;90.46;99107.31;6206584;23;20036;-73
2022/01/04 03:25:45;;;;;;;2.85;1.42;;;;;;;8.60;90.21;99117.31;6208897;23;20074;-74
2022/01/04 03:28:49;;;;;;;4.03;1.40;;;;;;;8.62;89.90;99114.63;6208773;23;20066;-73
2022/01/04 03:31:55;;;;;;;3.58;1.20;;;;;;;8.53;90.22;99113.47;6208971;23;20107;-73
2022/01/04 03:34:57;;;;;;;2.28;1.00;;;;;;;8.45;90.70;99107.91;6208830;23;20058;-73
2022/01/04 03:38:00;;;;;;;;;;;;;;;8.55;90.35;99101.19;6210755;23;20079;-73
2022/01/04 03:41:07;;;;;;;2.30;1.00;;;;;;;8.64;89.78;99091.06;6210117;23;20018;-73
2022/01/04 03:44:19;;;;;;;6.97;1.73;;;;;;;8.61;89.70;99087.75;6209704;23;20023;-73
2022/01/04 03:47:23;;;;;;;2.30;1.20;;;;;;;8.48;90.45;99083.44;6209292;23;20409;-73
2022/01/04 03:50:26;;;;;;;2.47;1.30;;;;;;;8.48;90.45;99066.03;6207779;23;20044;-74
2022/01/04 03:53:29;;;;;;;;;;;;;;;8.49;90.37;99052.09;6209482;23;20545;-74
2022/01/04 03:56:32;;;;;;;4.95;1.65;;;;;;;8.43;90.85;99042.09;6208542;23;19914;-75
2022/01/04 03:59:36;;;;;;;5.25;2.58;;;;;;;8.22;91.62;99046.06;6209750;23;20031;-73
2022/01/04 04:02:39;;;;;;;4.45;2.50;;;;;;;8.41;90.92;99038.75;6209359;23;20069;-73
2022/01/04 04:05:42;;;;;;;3.47;1.70;;;;;;;8.40;90.86;99021.44;6209016;23;20071;-73
2022/01/04 04:08:46;;;;;;;3.15;1.13;;;;;;;8.46;90.46;99023.66;6208833;23;20024;-73
2022/01/04 04:11:49;;;;;;;;;;;;;;;8.46;90.29;99015.84;6209108;23;20031;-73
2022/01/04 04:14:52;;;;;;;2.22;1.15;;;;;;;8.52;89.71;99011.94;6208121;23;20203;-73
2022/01/04 04:17:55;;;;;;;2.58;1.20;;;;;;;8.58;89.84;99017.59;6208749;23;20102;-73
2022/01/04 04:20:58;;;;;;;1.90;1.00;;;;;;;8.53;89.42;99021.47;6190791;23;20043;-73
2022/01/04 04:24:02;;;;;;;2.20;0.90;;;;;;;8.50;89.81;99014.69;6208551;23;20090;-73
2022/01/04 04:27:05;;;;;;;;;;;;;;;8.51;89.72;99012.91;6209044;23;20058;-73
2022/01/04 04:30:09;;;;;;;2.05;0.90;;;;;;;8.37;90.14;98999.00;6208388;23;19995;-73
2022/01/04 04:33:13;;;;;;;4.00;0.88;;;;;;;8.45;89.94;98988.09;6207900;23;20074;-73
2022/01/04 04:36:16;;;;;;;4.95;0.60;;;;;;;8.51;89.71;98992.88;6208394;23;20023;-73
2022/01/04 04:39:20;;;;;;;2.72;0.70;;;;;;;8.49;89.68;99004.38;6209874;23;20090;-73
2022/01/04 04:42:23;;;;;;;3.10;1.20;;;;;;;8.48;89.68;98995.69;6208582;23;20030;-74
2022/01/04 04:45:27;;;;;;;3.00;0.80;;;;;;;8.44;89.56;98983.00;6208708;23;20409;-74
2022/01/04 04:48:30;;;;;;;3.50;0.70;;;;;;;8.49;89.50;98979.16;6207200;23;20064;-73
2022/01/04 04:51:34;;;;;;;3.65;0.63;;;;;;;8.47;89.67;98975.81;6208286;23;20028;-73
2022/01/04 04:54:37;;;;;;;;;;;;;;;8.50;89.36;98973.00;6209283;23;20094;-73
2022/01/04 04:57:40;;;;;;;3.63;0.47;;;;;;;8.40;89.72;98965.94;6209454;23;19915;-74
2022/01/04 05:00:47;;;;;;;;;;;;;;;8.42;89.79;98959.66;6208276;23;20477;-75
2022/01/04 05:03:54;;;;;;;1.98;0.60;;;;;;;8.47;89.09;98960.19;6208605;23;19995;-73
2022/01/04 05:06:57;;;;;;;3.20;0.50;;;;;;;8.47;89.45;98954.16;6207733;23;20024;-74
2022/01/04 05:10:05;;;;;;;4.60;0.55;;;;;;;8.41;89.22;98944.97;6207517;23;20059;-73
2022/01/04 05:13:09;;;;;;;6.97;0.50;;;;;;;8.33;89.49;98948.09;6188651;23;20118;-73
2022/01/04 05:16:12;;;;;;;;;;;;;;;8.43;89.05;98932.69;6205672;23;20023;-74
2022/01/04 05:19:16;;;;;;;3.08;0.52;;;;;;;8.40;89.13;98930.28;6208420;23;19914;-73
2022/01/04 05:22:19;;;;;;;2.33;0.40;;;;;;;8.31;89.38;98933.50;6208681;23;20027;-73
2022/01/04 05:25:22;;;;;;;;;;;;;;;8.32;89.40;98937.75;6189940;23;20085;-73
2022/01/04 05:28:25;;;;;;;3.40;0.40;;;;;;;8.37;89.35;98930.47;6207252;23;19918;-74
2022/01/04 05:31:29;;;;;;;2.58;0.50;;;;;;;8.28;89.31;98949.31;6203227;23;20557;-73
2022/01/04 05:34:55;;;;;;;;;;;;;;;8.24;89.70;98945.28;6210020;23;20024;-73
2022/01/04 05:38:30;;;;;;;2.72;0.40;;;;;;;8.32;89.30;98935.16;6211544;23;19960;-73
2022/01/04 05:41:34;;;;;;;2.08;0.85;;;;;;;8.36;89.19;98919.22;6212872;23;20505;-72
2022/01/04 05:44:37;;;;;;;2.47;0.80;;;;;;;8.30;89.99;98916.22;6213004;23;20039;-73
2022/01/04 05:47:41;;;;;;;2.63;0.82;;;;;;;8.37;89.75;98912.25;6212892;23;20027;-73
2022/01/04 06:02:58;;;;;;;4.03;1.63;;;;;;;7.99;91.14;98900.06;5127371;27;20405;-63
2022/01/04 06:06:01;;;;;;;2.10;1.00;;;;;;;8.05;90.71;98899.66;5125185;28;20046;-63
2022/01/04 06:09:04;;;;;;;;;;;;;;;8.11;90.34;98894.03;5125084;28;20100;-63
2022/01/04 06:15:40;;;;;;;3.78;0.90;;;;;;;8.25;89.50;98884.44;5111699;28;20055;-63
2022/01/04 06:18:44;;;;;;;6.78;1.30;;;;;;;8.20;89.50;98878.69;5125206;28;20411;-63
2022/01/04 06:21:47;;;;;;;4.05;1.20;;;;;;;8.21;89.30;98865.59;5124400;28;20130;-63
2022/01/04 06:24:51;;;;;;;;;;;;;;;8.25;89.35;98867.03;5124940;28;20484;-63
2022/01/04 06:27:56;;;;;;;;;;;;;;;8.19;89.22;98864.03;5121115;28;20037;-63
2022/01/04 06:30:59;;;;;;;4.05;0.80;;;;;;;8.24;89.00;98872.38;5120904;28;20006;-63
2022/01/04 06:34:03;;;;;;;;;;;;;;;8.13;89.58;98884.31;5116345;28;20162;-63
2022/01/04 06:37:07;;;;;;;3.70;1.73;;;;;;;8.04;90.27;98877.16;5122852;28;20046;-63
2022/01/04 06:40:11;;;;;;;9.05;8.07;;;;;;;8.00;90.42;98873.09;5122907;28;20076;-63
2022/01/04 06:43:15;;;;;;;6.93;4.70;;;;;;;7.95;90.91;98875.19;5123616;28;20068;-63
2022/01/04 06:46:18;;;;;;;;;;;;;;;8.11;90.14;98877.59;5124188;28;20527;-63
2022/01/04 06:49:23;;;;;;;3.08;1.23;;;;;;;8.15;89.33;98873.81;5119566;28;20061;-64
2022/01/04 06:52:27;;;;;;;4.25;1.85;;;;;;;8.22;89.48;98874.22;5114801;27;20124;-64
2022/01/04 06:55:30;;;;;;;3.88;2.13;;;;;;;8.18;89.50;98868.41;5099519;28;20051;-64
2022/01/04 06:58:34;;;;;;;6.78;2.65;;;;;;;8.06;89.54;98862.25;5099735;28;20553;-64
2022/01/04 07:01:41;;;;;;;3.90;1.90;;;;;;;8.12;89.12;98851.44;5097170;28;20126;-65
2022/01/04 07:04:45;;;;;;;12.77;9.07;;;;;;;8.10;89.11;98847.25;5106634;27;20043;-64
2022/01/04 07:07:50;;;;;;;8.18;6.35;;;;;;;8.10;89.09;98837.72;5083803;28;20042;-64
2022/01/04 07:10:54;;;;;;;9.43;4.05;;;;;;;8.15;88.92;98848.63;5076450;28;20093;-64
2022/01/04 07:13:57;;;;;;;5.88;3.15;;;;;;;8.04;89.35;98839.88;5088433;28;20191;-63
2022/01/04 07:17:02;;;;;;;5.15;2.88;;;;;;;8.26;91.11;98847.84;5068195;28;20039;-64
2022/01/04 07:20:06;;;;;;;6.47;2.35;;;;;;;8.35;90.22;98836.81;5069678;28;20051;-65
2022/01/04 07:23:09;;;;;;;4.38;1.52;;;;;;;8.22;88.81;98835.16;5089644;28;20038;-63
2022/01/04 07:26:14;;;;;;;2.22;0.90;;;;;;;8.14;88.82;98839.16;5087068;28;20039;-64
2022/01/04 07:29:17;;;;;;;3.90;1.17;;;;;;;8.14;88.66;98839.16;5083216;28;20127;-63
2022/01/04 07:32:20;;;;;;;;;;;;;;;8.20;88.48;98829.22;5074616;28;20263;-64
2022/01/04 07:35:24;;;;;;;2.90;1.20;;;;;;;8.21;88.71;98825.72;5088939;28;19923;-64
2022/01/04 07:38:27;;;;;;;2.92;1.15;;;;;;;8.09;88.97;98823.00;5071703;28;20122;-62
2022/01/04 07:41:30;;;;;;;;;;;;;;;8.11;88.67;98828.94;5081999;28;20072;-69
2022/01/04 07:44:35;;;;;;;3.63;1.20;;;;;;;8.15;88.63;98817.38;5077789;28;19918;-84
2022/01/04 07:47:41;;;;;;;4.57;1.30;;;;;;;8.08;88.95;98821.34;5090496;28;20153;-84
2022/01/04 07:50:44;;;;;;;11.93;2.33;;;;;;;7.96;88.91;98819.59;5090425;28;20043;-79
2022/01/04 07:53:47;;;;;;;2.80;1.33;;;;;;;7.71;90.35;98814.38;5085121;28;20098;-63
2022/01/04 07:56:53;;;;;;;;;;;;;;;7.74;90.54;98809.81;5081519;28;20047;-64
2022/01/04 07:59:56;;;;;;;5.70;3.40;;;;;;;7.92;90.01;98802.53;5084192;28;19919;-64
2022/01/04 08:03:00;;;;;;;6.90;2.58;;;;;;;8.02;89.66;98797.50;5082735;28;20035;-63
2022/01/04 08:06:03;;;;;;;;;;;;;;;7.98;89.41;98791.69;5072770;28;20083;-78
2022/01/04 08:09:07;;;;;;;4.72;1.83;;;;;;;8.04;89.47;98795.63;5086094;28;20015;-63
2022/01/04 08:12:10;;;;;;;;;;;;;;;8.06;89.11;98798.97;5083710;28;20040;-64
2022/01/04 08:15:19;;;;;;;4.60;1.75;;;;;;;7.97;89.74;98800.41;5077793;28;19959;-64
2022/01/04 08:18:24;;;;;;;3.00;1.45;;;;;;;8.08;89.47;98791.88;5089028;28;20070;-64
2022/01/04 08:21:27;;;;;;;;;;;;;;;8.05;89.50;98790.31;5070730;28;20071;-64
2022/01/04 08:24:30;;;;;;;3.00;1.40;;;;;;;8.09;89.18;98786.56;5087409;28;19926;-64
2022/01/04 08:27:34;;;;;;;3.35;1.60;;;;;;;8.03;89.42;98791.38;5076528;28;20055;-64
2022/01/04 08:30:37;;;;;;;6.63;1.63;;;;;;;8.05;89.48;98781.69;5084605;28;20087;-69
2022/01/04 08:33:41;;;;;;;5.38;1.70;;;;;;;8.09;89.42;98790.94;5087532;28;20201;-69
2022/01/04 08:36:45;;;;;;;5.70;2.13;;;;;;;8.06;89.46;98794.56;5086563;28;20055;-69
2022/01/04 08:39:48;;;;;;;3.97;2.20;;;;;;;8.03;89.19;98789.59;5071959;28;20124;-69
2022/01/04 08:42:52;;;;;;;3.75;2.08;;;;;;;8.04;89.19;98788.66;5085071;28;20031;-69
2022/01/04 08:46:01;;;;;;;3.15;1.70;;;;;;;8.02;89.27;98787.94;5103819;28;20066;-69
2022/01/04 08:49:16;;;;;;;7.68;2.40;;;;;;;8.04;89.46;98791.28;5095441;28;20085;-69
2022/01/04 08:52:24;;;;;;;6.75;4.35;;;;;;;8.01;89.76;98795.81;5068118;28;20109;-71
2022/01/04 08:55:28;;;;;;;17.15;15.35;;;;;;;8.02;89.85;98797.50;5090853;28;20114;-69
2022/01/04 08:58:31;;;;;;;16.63;13.43;;;;;;;8.08;89.29;98797.09;5069209;28;20090;-69
2022/01/04 09:01:35;;;;;;;12.85;8.43;;;;;;;8.00;89.53;98805.41;5089033;28;20050;-69
2022/01/04 09:04:38;;;;;;;11.80;8.07;;;;;;;8.04;89.60;98799.06;5079419;28;20043;-69
2022/01/04 09:07:42;;;;;;;;;;;;;;;7.75;90.34;98806.25;5087806;28;20089;-69
2022/01/04 09:10:45;;;;;;;25.75;23.15;;;;;;;7.69;90.84;98806.69;5088370;28;20009;-69
2022/01/04 09:13:50;;;;;;;8.68;7.78;;;;;;;7.72;90.61;98796.06;5088398;28;20071;-69
2022/01/04 09:20:18;;;;;;;3.85;2.17;;;;;;;7.67;89.67;98803.34;5086509;28;20047;-69
2022/01/04 09:23:21;;;;;;;;;;;;;;;7.82;89.50;98796.28;5085270;28;20050;-69
2022/01/04 09:26:26;;;;;;;1.77;0.88;;;;;;;7.91;88.19;98790.44;5087241;28;19994;-69
2022/01/04 09:29:29;;;;;;;1.38;0.35;;;;;;;7.91;87.90;98795.63;5087714;28;20054;-69
2022/01/04 09:32:32;;;;;;;;;;;;;;;7.97;87.54;98805.63;5086963;28;20071;-69
2022/01/04 09:35:36;;;;;;;2.70;0.30;;;;;;;7.98;87.11;98812.50;5086986;28;20382;-69
2022/01/04 09:38:40;;;;;;;4.15;0.50;;;;;;;7.99;87.16;98803.75;5066702;28;20504;-70
2022/01/04 09:41:43;;;;;;;2.00;0.60;;;;;;;7.93;86.12;98810.22;5066609;28;20433;-70
2022/01/04 09:44:48;;;;;;;2.92;0.40;;;;;;;7.93;87.19;98805.00;5070189;28;20858;-69
2022/01/04 09:47:51;;;;;;;2.95;0.47;;;;;;;7.97;87.71;98807.41;5089735;28;20498;-69
2022/01/04 09:50:57;;;;;;;2.05;0.50;;;;;;;7.91;88.22;98806.03;5100561;28;20071;-70
2022/01/04 09:54:00;;;;;;;2.10;0.50;;;;;;;7.96;88.06;98816.97;5086607;28;20046;-69
2022/01/04 09:57:03;;;;;;;1.40;0.30;;;;;;;7.89;88.09;98823.56;5086813;28;20070;-69
2022/01/04 10:00:07;;;;;;;;;;;;;;;7.88;87.36;98822.72;5086222;28;20074;-69
2022/01/04 10:03:17;;;;;;;1.05;0.20;;;;;;;7.68;86.90;98825.81;5087131;28;19919;-69
2022/01/04 10:06:21;;;;;;;1.05;0.43;;;;;;;7.60;88.18;98834.16;5086281;28;20063;-69
2022/01/04 10:09:53;;;;;;;;;;;;;;;7.68;88.21;98837.06;5087272;28;20152;-69
2022/01/04 10:13:01;;;;;;;3.10;0.43;;;;;;;7.82;87.91;98833.56;5086737;28;19923;-69
2022/01/04 10:16:16;;;;;;;1.20;0.20;;;;;;;7.86;86.90;98818.56;5086222;28;20113;-69
2022/01/04 10:19:33;;;;;;;2.40;0.70;;;;;;;7.90;86.29;98823.44;5087508;28;20145;-69
2022/01/04 10:22:37;;;;;;;0.88;0.30;;;;;;;7.96;86.00;98824.78;5067118;28;20039;-69
2022/01/04 10:25:41;;;;;;;1.23;0.40;;;;;;;7.99;85.68;98828.97;5065252;28;20276;-69
2022/01/04 10:28:46;;;;;;;1.10;0.30;;;;;;;7.93;85.34;98828.44;5084981;28;20047;-69
2022/01/04 10:31:51;;;;;;;1.80;0.22;;;;;;;7.93;86.11;98822.41;5085339;28;20400;-69
2022/01/04 10:34:56;;;;;;;0.98;0.20;;;;;;;7.89;86.33;98823.56;5085102;28;20108;-70
2022/01/04 10:38:11;;;;;;;2.95;0.75;;;;;;;7.82;86.14;98832.72;5067893;28;20536;-69
2022/01/04 10:41:21;;;;;;;3.67;0.73;;;;;;;7.85;85.97;98832.50;5069929;28;20043;-69
2022/01/04 10:44:32;;;;;;;4.55;3.08;;;;;;;7.73;87.04;98828.97;5069938;28;20516;-69
2022/01/04 10:47:35;;;;;;;10.65;9.65;;;;;;;7.69;87.47;98817.94;5069628;28;20085;-69
2022/01/04 10:50:38;;;;;;;;;;;;;;;7.53;88.17;98825.09;5095359;28;20050;-69
2022/01/04 10:53:46;;;;;;;3.40;1.23;;;;;;;7.05;89.74;98827.41;5110596;28;19923;-69
2022/01/04 10:57:03;;;;;;;2.10;0.55;;;;;;;7.39;89.15;98835.56;5103288;28;20093;-69
2022/01/04 11:00:20;;;;;;;2.08;0.60;;;;;;;7.72;88.02;98821.25;5090254;28;20499;-69
2022/01/04 11:03:32;;;;;;;2.33;0.50;;;;;;;7.86;87.35;98808.97;5090393;28;20051;-69
2022/01/04 11:06:37;;;;;;;1.83;0.60;;;;;;;7.86;86.86;98813.34;5070648;28;20059;-69
2022/01/04 11:09:40;;;;;;;1.88;0.57;;;;;;;7.93;86.34;98806.78;5070311;28;20073;-69
2022/01/04 11:12:43;;;;;;;;;;;;;;;8.00;86.31;98809.78;5070654;28;20046;-69
2022/01/04 11:15:47;;;;;;;3.00;0.38;;;;;;;8.03;86.23;98809.59;5071172;28;19923;-69
2022/01/04 11:18:53;;;;;;;1.20;0.40;;;;;;;7.96;86.64;98814.38;5089569;28;20059;-69
2022/01/04 11:21:59;;;;;;;1.23;0.40;;;;;;;7.86;87.07;98819.38;5089795;28;20479;-69
2022/01/04 11:25:03;;;;;;;0.93;0.30;;;;;;;7.89;86.38;98823.56;5088964;28;20109;-69
2022/01/04 11:32:21;;;;;;;1.67;0.28;;;;;;;7.93;86.55;98825.00;5087434;28;20051;-69
2022/01/04 11:35:26;;;;;;;5.03;0.90;;;;;;;7.89;85.93;98826.16;5088604;28;20050;-69
2022/01/04 11:38:35;;;;;;;2.65;0.80;;;;;;;7.89;85.79;98820.94;5088134;28;20109;-70
2022/01/04 11:41:42;;;;;;;2.97;0.43;;;;;;;7.87;85.26;98830.63;5088841;28;20458;-70
2022/01/04 11:44:48;;;;;;;1.65;0.50;;;;;;;7.93;85.64;98832.81;5089243;28;20085;-70
2022/01/04 11:47:52;;;;;;;1.77;0.63;;;;;;;7.80;85.68;98832.81;5088803;28;20420;-69
2022/01/04 11:50:56;;;;;;;;;;;;;;;7.85;86.13;98832.50;5093731;28;20039;-69
2022/01/04 11:54:22;;;;;;;2.38;0.80;;;;;;;7.93;86.31;98832.81;5088758;28;20011;-69
2022/01/04 11:57:25;;;;;;;3.65;0.63;;;;;;;7.97;86.23;98834.25;5088566;28;20101;-69
2022/01/04 12:00:32;;;;;;;7.20;4.18;;;;;;;7.95;86.48;98833.53;5087645;28;20079;-69
2022/01/04 12:03:47;;;;;;;4.20;2.90;;;;;;;7.58;85.97;98822.19;5087481;28;20093;-69
2022/01/04 12:06:53;;;;;;;4.47;3.10;;;;;;;7.05;86.23;98824.81;5087386;28;20047;-70
2022/01/04 12:10:19;;;;;;;3.45;1.90;;;;;;;6.98;86.94;98820.91;5087361;28;20062;-69
2022/01/04 12:13:46;;;;;;;3.80;1.90;;;;;;;6.83;86.80;98824.50;5088721;28;20206;-69
2022/01/04 12:17:03;;;;;;;3.05;1.50;;;;;;;7.06;87.12;98817.84;5088038;28;20062;-69
2022/01/04 12:20:06;;;;;;;2.88;1.73;;;;;;;7.04;86.97;98815.31;5089541;28;20770;-69
2022/01/04 12:23:25;;;;;;;2.50;1.30;;;;;;;7.19;87.00;98814.31;5087365;28;20089;-69
2022/01/04 12:26:32;;;;;;;4.43;1.50;;;;;;;7.08;86.08;98821.97;5076612;28;20044;-69
2022/01/04 12:29:36;;;;;;;3.58;1.55;;;;;;;6.95;85.79;98829.72;5068846;28;20086;-69
2022/01/04 12:32:39;;;;;;;6.57;3.67;;;;;;;6.77;87.11;98827.50;5068036;28;20635;-69
2022/01/04 12:35:48;;;;;;;;;;;;;;;6.75;86.93;98838.81;5066925;28;20476;-69
2022/01/04 12:38:53;;;;;;;10.48;7.25;;;;;;;6.90;87.11;98839.59;5067257;28;20293;-69
2022/01/04 12:41:57;;;;;;;9.25;6.38;;;;;;;7.01;87.61;98840.69;5068823;28;20440;-69
2022/01/04 12:45:00;;;;;;;;;;;;;;;6.87;87.61;98833.78;5068982;28;20055;-69
2022/01/04 12:48:04;;;;;;;8.85;5.10;;;;;;;6.82;87.98;98831.47;5067806;28;19919;-69
2022/01/04 12:51:28;;;;;;;3.10;1.50;;;;;;;6.94;88.05;98829.84;5074161;28;20495;-69
2022/01/04 12:54:34;;;;;;;6.80;3.95;;;;;;;6.81;87.73;98828.97;5105774;28;20127;-69
2022/01/04 12:57:37;;;;;;;5.43;3.03;;;;;;;6.83;87.79;98840.94;5107811;28;20045;-69
2022/01/04 13:00:41;;;;;;;;;;;;;;;6.86;88.28;98845.94;5108088;28;20039;-69
2022/01/04 13:03:44;;;;;;;;;;;;;;;6.84;87.66;98849.56;5109184;28;20671;-69
2022/01/04 13:06:48;;;;;;;5.45;2.47;;;;;;;6.82;86.96;98841.84;5089086;28;20004;-69
2022/01/04 13:09:57;;;;;;;3.00;1.48;;;;;;;6.50;87.68;98851.66;5066736;28;20044;-70
2022/01/04 13:13:00;;;;;;;3.33;1.67;;;;;;;6.48;87.51;98859.56;5066436;28;20043;-69
2022/01/04 13:16:21;;;;;;;6.30;1.90;;;;;;;6.59;86.98;98858.88;5066510;28;20513;-70
2022/01/04 13:19:24;;;;;;;3.60;1.23;;;;;;;6.60;87.25;98854.53;5071111;28;20105;-69
2022/01/04 13:22:29;;;;;;;3.03;1.08;;;;;;;6.59;86.97;98851.09;5083264;28;20043;-69
2022/01/04 13:25:32;;;;;;;2.42;0.90;;;;;;;6.54;86.94;98863.56;5071865;28;20074;-69
2022/01/04 13:28:36;;;;;;;;;;;;;;;6.62;86.96;98863.91;5087579;28;20150;-69
2022/01/04 13:31:40;;;;;;;2.00;0.57;;;;;;;6.65;86.28;98849.88;5087592;28;19969;-69
2022/01/04 13:34:43;;;;;;;;;;;;;;;6.58;86.85;98846.84;5087713;28;20109;-69
2022/01/04 13:38:13;;;;;;;5.50;4.13;;;;;;;6.48;86.97;98843.16;5087088;28;20058;-69
2022/01/04 13:41:37;;;;;;;1.80;0.63;;;;;;;6.51;86.51;98845.56;5087796;28;20043;-69
2022/01/04 13:45:00;;;;;;;;;;;;;;;6.51;86.80;98850.75;5087807;28;20559;-69
2022/01/04 13:48:04;;;;;;;2.92;1.42;;;;;;;6.57;87.12;98868.53;5085881;28;20007;-69
2022/01/04 13:51:09;;;;;;;10.90;9.25;;;;;;;6.59;87.04;98860.66;5087325;28;20623;-69
2022/01/04 13:54:14;;;;;;;9.07;5.78;;;;;;;6.61;87.68;98880.41;5096920;28;20096;-69
2022/01/04 13:57:17;;;;;;;7.55;3.83;;;;;;;6.72;87.72;98888.34;5087337;28;20156;-69
2022/01/04 14:00:28;;;;;;;;;;;;;;;6.98;87.26;98894.50;5087506;28;20085;-69
2022/01/04 14:03:32;;;;;;;21.15;12.77;;;;;;;6.90;87.17;98893.34;5086956;28;20343;-69
2022/01/04 14:06:42;;;;;;;;;;;;;;;6.82;86.53;98892.97;5087684;28;20066;-69
2022/01/04 14:09:45;;;;;;;6.90;3.22;;;;;;;6.93;86.99;98887.97;5087147;28;19937;-69
2022/01/04 14:12:48;;;;;;;;;;;;;;;6.92;86.06;98896.66;5088998;28;20051;-69
2022/01/04 14:16:15;;;;;;;14.25;7.57;;;;;;;6.80;85.74;98884.47;5090824;28;19962;-69
2022/01/04 14:19:55;;;;;;;15.20;8.50;;;;;;;6.92;86.14;98881.94;5071247;28;20047;-69
2022/01/04 14:22:58;;;;;;;20.60;12.45;;;;;;;6.85;85.59;98880.63;5070108;28;20409;-69
2022/01/04 14:26:04;;;;;;;7.05;4.10;;;;;;;6.93;85.48;98888.78;5071655;28;20047;-69
2022/01/04 14:29:07;;;;;;;16.67;11.32;;;;;;;6.99;86.42;98890.16;5070105;28;20089;-69
2022/01/04 14:32:16;;;;;;;;;;;;;;;6.90;86.28;98890.75;5085032;28;20536;-69
2022/01/04 14:35:20;;;;;;;7.78;6.32;;;;;;;7.00;86.50;98894.41;5090837;28;19927;-69
2022/01/04 14:38:23;;;;;;;7.15;2.90;;;;;;;7.07;84.30;98897.47;5090266;28;20504;-69
2022/01/04 14:41:27;;;;;;;10.13;4.65;;;;;;;6.95;84.76;98904.25;5091065;28;20105;-69
2022/01/04 14:44:33;;;;;;;17.60;8.15;;;;;;;6.92;85.14;98904.44;5091285;28;20546;-69
2022/01/04 14:47:37;;;;;;;11.82;4.35;;;;;;;6.77;85.24;98911.47;5070762;28;20047;-69
2022/01/04 14:50:40;;;;;;;;;;;;;;;6.84;85.79;98917.09;5070186;28;20047;-69
2022/01/04 14:53:43;;;;;;;14.10;6.32;;;;;;;6.92;85.90;98909.66;5073303;28;19985;-69
2022/01/04 14:56:46;;;;;;;11.88;4.47;;;;;;;6.91;85.71;98910.59;5106748;28;20127;-69
2022/01/04 14:59:53;;;;;;;10.48;4.88;;;;;;;6.69;85.05;98919.72;5102976;28;20039;-69
2022/01/04 15:02:59;;;;;;;11.15;5.38;;;;;;;6.96;86.17;98922.38;5090891;28;20047;-69
2022/01/04 15:06:04;;;;;;;3.78;1.80;;;;;;;6.71;84.92;98928.25;5090604;28;20105;-69
2022/01/04 15:09:10;;;;;;;7.72;2.47;;;;;;;6.56;85.65;98913.63;5089618;28;20046;-69
2022/01/04 15:12:14;;;;;;;7.22;2.20;;;;;;;6.82;85.66;98921.56;5088568;28;20092;-69
2022/01/04 15:15:18;;;;;;;3.03;1.33;;;;;;;6.87;84.94;98922.13;5084769;28;20055;-69
2022/01/04 15:18:21;;;;;;;;;;;;;;;6.82;85.59;98918.97;5090400;28;20173;-69
2022/01/04 15:21:24;;;;;;;5.97;2.45;;;;;;;6.77;85.30;98923.63;5089996;28;20451;-69
2022/01/04 15:24:27;;;;;;;;;;;;;;;6.70;85.80;98915.34;5090572;28;20105;-69